createdAt,value
2022-09-12T00:01:37.207Z,93058.38
2022-09-12T00:04:20.282Z,93065.03
2022-09-12T00:07:03.248Z,93057.78
2022-09-12T00:09:46.193Z,93056.81
2022-09-12T00:12:30.430Z,93054.75
2022-09-12T00:15:13.682Z,93053.28
2022-09-12T00:17:56.648Z,93053.47
2022-09-12T00:20:42.823Z,93047.81
2022-09-12T00:23:25.795Z,93051.19
2022-09-12T00:26:09.544Z,93049.25
2022-09-12T00:28:54.167Z,93048.47
2022-09-12T00:31:37.177Z,93040.72
2022-09-12T00:34:20.111Z,93036.53
2022-09-12T00:37:03.096Z,93042.81
2022-09-12T00:39:46.102Z,93041.38
2022-09-12T00:42:29.183Z,93046.06
2022-09-12T00:45:24.306Z,93045.25
2022-09-12T00:48:07.280Z,93041.69
2022-09-12T00:50:51.337Z,93046.22
2022-09-12T00:53:34.416Z,93035.09
2022-09-12T00:56:20.457Z,93033.31
2022-09-12T00:59:08.380Z,93038.16
2022-09-12T01:01:53.688Z,93033.63
2022-09-12T01:04:39.367Z,93043.44
2022-09-12T01:07:22.839Z,93032.78
2022-09-12T01:10:06.646Z,93023.09
2022-09-12T01:12:49.907Z,93021.47
2022-09-12T01:15:33.272Z,93022.13
2022-09-12T01:18:25.815Z,93021.94
2022-09-12T01:21:16.776Z,93020.00
2022-09-12T01:24:37.991Z,93016.63
2022-09-12T01:27:48.504Z,93011.31
2022-09-12T01:30:49.202Z,93010.03
2022-09-12T01:33:59.258Z,93014.25
2022-09-12T01:36:51.412Z,93007.13
2022-09-12T01:39:44.235Z,93010.03
2022-09-12T01:42:35.194Z,92998.41
2022-09-12T01:45:24.522Z,92998.59
2022-09-12T01:48:14.104Z,92992.94
2022-09-12T01:51:07.509Z,92997.81
2022-09-12T01:53:54.962Z,93003.00
2022-09-12T01:56:41.359Z,93006.25
2022-09-12T01:59:30.468Z,93004.31
2022-09-12T02:02:16.820Z,93000.63
2022-09-12T02:05:06.943Z,92996.75
2022-09-12T02:07:54.871Z,92996.09
2022-09-12T02:10:45.117Z,92992.22
2022-09-12T02:13:33.340Z,92994.34
2022-09-12T02:16:20.200Z,92993.69
2022-09-12T02:19:09.733Z,92987.75
2022-09-12T02:21:56.759Z,92987.88
2022-09-12T02:24:43.310Z,92984.84
2022-09-12T02:27:33.611Z,92983.53
2022-09-12T02:30:17.618Z,92981.31
2022-09-12T02:33:06.046Z,92981.00
2022-09-12T02:35:52.901Z,92980.34
2022-09-12T02:38:45.286Z,92980.66
2022-09-12T02:41:28.704Z,92981.81
2022-09-12T02:44:11.785Z,92980.97
2022-09-12T02:46:58.500Z,92979.06
2022-09-12T02:49:41.440Z,92971.16
2022-09-12T02:52:24.587Z,92976.28
2022-09-12T02:55:11.618Z,92975.81
2022-09-12T02:57:54.606Z,92982.41
2022-09-12T03:00:46.580Z,92975.63
2022-09-12T03:03:45.140Z,92978.22
2022-09-12T03:06:36.520Z,92980.00
2022-09-12T03:09:24.166Z,92976.59
2022-09-12T03:12:26.504Z,92971.78
2022-09-12T03:15:21.590Z,92973.88
2022-09-12T03:18:07.404Z,92971.59
2022-09-12T03:21:00.899Z,92968.56
2022-09-12T03:23:52.664Z,92961.94
2022-09-12T03:26:41.379Z,92964.84
2022-09-12T03:29:27.413Z,92965.81
2022-09-12T03:32:10.424Z,92965.00
2022-09-12T03:34:53.416Z,92959.84
2022-09-12T03:37:36.511Z,92961.94
2022-09-12T03:40:20.041Z,92957.88
2022-09-12T03:43:03.934Z,92959.66
2022-09-12T03:45:51.372Z,92961.78
2022-09-12T03:48:34.519Z,92962.09
2022-09-12T03:51:17.832Z,92962.56
2022-09-12T03:54:00.746Z,92957.25
2022-09-12T03:56:43.702Z,92959.78
2022-09-12T03:59:26.627Z,92959.78
2022-09-12T04:02:13.106Z,92956.03
2022-09-12T04:04:56.069Z,92955.25
2022-09-12T04:07:38.994Z,92953.63
2022-09-12T04:10:22.676Z,92966.19
2022-09-12T04:13:05.783Z,92960.09
2022-09-12T04:15:57.392Z,92963.31
2022-09-12T04:18:41.972Z,92962.34
2022-09-12T04:21:25.713Z,92956.06
2022-09-12T04:24:08.687Z,92956.72
2022-09-12T04:26:51.671Z,92958.81
2022-09-12T04:29:35.680Z,92960.28
2022-09-12T04:32:18.934Z,92960.59
2022-09-12T04:35:03.284Z,92961.75
2022-09-12T04:37:46.369Z,92966.59
2022-09-12T04:40:31.489Z,92961.44
2022-09-12T04:43:14.737Z,92954.53
2022-09-12T04:45:58.464Z,92958.84
2022-09-12T04:48:41.776Z,92961.13
2022-09-12T04:51:28.146Z,92967.06
2022-09-12T04:54:15.092Z,92962.56
2022-09-12T04:56:58.140Z,92964.81
2022-09-12T04:59:41.217Z,92960.97
2022-09-12T05:02:24.189Z,92958.88
2022-09-12T05:05:08.060Z,92964.03
2022-09-12T05:07:52.381Z,92960.66
2022-09-12T05:10:35.522Z,92963.38
2022-09-12T05:13:18.498Z,92960.16
2022-09-12T05:16:02.856Z,92957.56
2022-09-12T05:18:47.324Z,92962.72
2022-09-12T05:21:30.351Z,92965.31
2022-09-12T05:24:14.720Z,92967.44
2022-09-12T05:26:57.643Z,92967.25
2022-09-12T05:29:40.596Z,92972.88
2022-09-12T05:32:23.513Z,92977.75
2022-09-12T05:35:06.808Z,92981.09
2022-09-12T05:37:49.732Z,92980.00
2022-09-12T05:40:35.084Z,92984.03
2022-09-12T05:43:18.139Z,92980.34
2022-09-12T05:46:05.394Z,92986.63
2022-09-12T05:48:53.721Z,92988.72
2022-09-12T05:51:40.960Z,92990.97
2022-09-12T05:54:25.564Z,92993.72
2022-09-12T05:57:12.763Z,92995.03
2022-09-12T05:59:55.764Z,92999.72
2022-09-12T06:02:38.721Z,92998.25
2022-09-12T06:05:21.742Z,92991.94
2022-09-12T06:08:04.711Z,92992.47
2022-09-12T06:10:47.711Z,92981.78
2022-09-12T06:13:34.544Z,92986.47
2022-09-12T06:16:19.178Z,92984.38
2022-09-12T06:19:03.823Z,92989.03
2022-09-12T06:21:48.333Z,92988.72
2022-09-12T06:24:31.279Z,92993.38
2022-09-12T06:27:14.221Z,92989.31
2022-09-12T06:29:59.503Z,92989.66
2022-09-12T06:32:42.403Z,92999.34
2022-09-12T06:35:25.390Z,92996.91
2022-09-12T06:38:09.570Z,92992.97
2022-09-12T06:40:52.453Z,92999.44
2022-09-12T06:43:37.031Z,92997.00
2022-09-12T06:46:21.844Z,92991.31
2022-09-12T06:49:04.804Z,92992.59
2022-09-12T06:51:47.782Z,92992.09
2022-09-12T06:54:31.125Z,92991.78
2022-09-12T06:57:14.032Z,92987.88
2022-09-12T06:59:57.059Z,92988.84
2022-09-12T07:02:41.790Z,92991.56
2022-09-12T07:05:24.748Z,92996.03
2022-09-12T07:08:07.711Z,92995.19
2022-09-12T07:10:50.892Z,92994.97
2022-09-12T07:13:33.906Z,92996.75
2022-09-12T07:16:20.007Z,92996.53
2022-09-12T07:19:06.299Z,92987.13
2022-09-12T07:21:49.325Z,92991.25
2022-09-12T07:24:32.290Z,92987.81
2022-09-12T07:27:15.361Z,92992.94
2022-09-12T07:29:58.494Z,92994.47
2022-09-12T07:32:41.421Z,92991.00
2022-09-12T07:35:25.881Z,92989.34
2022-09-12T07:38:09.398Z,92995.59
2022-09-12T07:40:52.312Z,93000.25
2022-09-12T07:43:35.306Z,92992.78
2022-09-12T07:46:18.489Z,92994.03
2022-09-12T07:49:02.809Z,92999.47
2022-09-12T07:51:47.122Z,92999.94
2022-09-12T07:54:30.089Z,92991.66
2022-09-12T07:57:13.031Z,92995.66
2022-09-12T07:59:56.044Z,92997.28
2022-09-12T08:02:39.025Z,93003.88
2022-09-12T08:05:22.095Z,92999.16
2022-09-12T08:08:06.325Z,92998.63
2022-09-12T08:10:49.312Z,93008.09
2022-09-12T08:13:32.710Z,92998.41
2022-09-12T08:16:17.898Z,93004.66
2022-09-12T08:19:02.276Z,93004.13
2022-09-12T08:21:45.175Z,93003.84
2022-09-12T08:24:29.575Z,93001.34
2022-09-12T08:27:12.479Z,93004.84
2022-09-12T08:29:55.597Z,93008.31
2022-09-12T08:32:38.659Z,93010.19
2022-09-12T08:35:21.634Z,93004.09
2022-09-12T08:38:04.605Z,93007.81
2022-09-12T08:40:55.250Z,93009.56
2022-09-12T08:43:56.758Z,93014.13
2022-09-12T08:46:47.093Z,93017.03
2022-09-12T08:49:34.513Z,93014.50
2022-09-12T08:52:23.029Z,93022.75
2022-09-12T08:55:08.087Z,93016.91
2022-09-12T08:57:53.037Z,93015.94
2022-09-12T09:00:44.571Z,93011.22
2022-09-12T09:03:55.300Z,93016.28
2022-09-12T09:06:56.784Z,93012.94
2022-09-12T09:09:49.291Z,93015.34
2022-09-12T09:12:44.030Z,93012.75
2022-09-12T09:15:41.268Z,93015.97
2022-09-12T09:18:28.865Z,93006.81
2022-09-12T09:21:22.859Z,93011.25
2022-09-12T09:24:10.731Z,92999.38
2022-09-12T09:26:59.004Z,93012.47
2022-09-12T09:29:45.652Z,93007.94
2022-09-12T09:32:36.093Z,93009.34
2022-09-12T09:35:25.739Z,93009.56
2022-09-12T09:38:19.936Z,92998.72
2022-09-12T09:41:16.879Z,93002.31
2022-09-12T09:44:00.671Z,93003.28
2022-09-12T09:46:43.723Z,93007.91
2022-09-12T09:49:31.057Z,93001.88
2022-09-12T09:52:17.452Z,93006.50
2022-09-12T09:55:02.004Z,93003.53
2022-09-12T09:57:47.631Z,93002.97
2022-09-12T10:00:33.238Z,92999.97
2022-09-12T10:03:33.924Z,92994.84
2022-09-12T10:06:34.525Z,92992.16
2022-09-12T10:09:24.167Z,92983.00
2022-09-12T10:12:23.055Z,92995.84
2022-09-12T10:15:19.301Z,92987.19
2022-09-12T10:18:03.104Z,92979.28
2022-09-12T10:20:46.728Z,92988.28
2022-09-12T10:23:36.133Z,92993.56
2022-09-12T10:26:21.743Z,92990.91
2022-09-12T10:29:13.856Z,92995.34
2022-09-12T10:31:59.987Z,92997.47
2022-09-12T10:34:45.087Z,92992.34
2022-09-12T10:37:33.140Z,92990.72
2022-09-12T10:40:25.338Z,92988.47
2022-09-12T10:43:18.907Z,92985.94
2022-09-12T10:46:25.076Z,92990.63
2022-09-12T10:49:22.171Z,92990.13
2022-09-12T10:52:19.123Z,92985.50
2022-09-12T10:55:02.050Z,92985.16
2022-09-12T10:58:02.126Z,92980.34
2022-09-12T11:00:51.592Z,92983.13
2022-09-12T11:06:36.320Z,92981.31
2022-09-12T11:09:25.961Z,92979.03
2022-09-12T11:12:16.424Z,92976.50
2022-09-12T11:15:17.128Z,92973.72
2022-09-12T11:18:10.140Z,92976.59
2022-09-12T11:21:17.056Z,92967.72
2022-09-12T11:24:16.355Z,92965.13
2022-09-12T11:27:10.831Z,92970.81
2022-09-12T11:29:58.745Z,92968.19
2022-09-12T11:33:09.778Z,92964.88
2022-09-12T11:35:57.343Z,92963.56
2022-09-12T11:39:07.769Z,92973.94
2022-09-12T11:41:57.027Z,92970.16
2022-09-12T11:44:44.635Z,92965.75
2022-09-12T11:47:30.809Z,92963.13
2022-09-12T11:50:21.851Z,92960.72
2022-09-12T11:53:16.347Z,92967.22
2022-09-12T11:56:06.714Z,92966.16
2022-09-12T11:58:56.698Z,92965.38
2022-09-12T12:01:48.595Z,92967.44
2022-09-12T12:04:40.643Z,92970.94
2022-09-12T12:07:24.959Z,92966.63
2022-09-12T12:10:09.328Z,92962.13
2022-09-12T12:12:53.971Z,92966.69
2022-09-12T12:15:37.783Z,92966.69
2022-09-12T12:18:24.773Z,92959.41
2022-09-12T12:21:32.593Z,92961.03
2022-09-12T12:24:21.331Z,92959.34
2022-09-12T12:27:05.952Z,92955.66
2022-09-12T12:29:48.968Z,92955.13
2022-09-12T12:32:31.924Z,92950.69
2022-09-12T12:35:39.583Z,92944.81
2022-09-12T12:38:30.894Z,92944.75
2022-09-12T12:41:46.547Z,92944.84
2022-09-12T12:44:47.346Z,92933.41
2022-09-12T12:47:33.855Z,92952.19
2022-09-12T12:50:26.164Z,92946.59
2022-09-12T12:53:20.160Z,92951.56
2022-09-12T12:56:03.918Z,92945.81
2022-09-12T12:58:48.253Z,92942.44
2022-09-12T13:01:32.648Z,92941.66
2022-09-12T13:04:18.930Z,92933.81
2022-09-12T13:07:08.406Z,92941.66
2022-09-12T13:09:54.115Z,92942.44
2022-09-12T13:12:45.359Z,92941.88
2022-09-12T13:15:51.418Z,92939.69
2022-09-12T13:18:44.254Z,92944.22
2022-09-12T13:21:27.170Z,92936.91
2022-09-12T13:24:15.917Z,92934.03
2022-09-12T13:26:58.936Z,92932.31
2022-09-12T13:29:42.362Z,92923.16
2022-09-12T13:32:27.220Z,92920.28
2022-09-12T13:35:22.583Z,92916.38
2022-09-12T13:38:15.778Z,92915.06
2022-09-12T13:41:18.472Z,92910.81
2022-09-12T13:44:02.792Z,92898.34
2022-09-12T13:46:46.311Z,92897.09
2022-09-12T13:49:35.378Z,92888.31
2022-09-12T13:52:22.322Z,92890.94
2022-09-12T13:55:09.339Z,92900.13
2022-09-12T13:57:58.139Z,92899.19
2022-09-12T14:00:41.167Z,92903.41
2022-09-12T14:03:45.699Z,92895.38
2022-09-12T14:06:36.036Z,92903.19
2022-09-12T14:09:25.425Z,92899.94
2022-09-12T14:12:20.652Z,92894.63
2022-09-12T14:15:04.157Z,92900.63
2022-09-12T14:17:52.169Z,92888.06
2022-09-12T14:20:39.443Z,92890.75
2022-09-12T14:23:28.417Z,92896.25
2022-09-12T14:26:13.654Z,92891.63
2022-09-12T14:28:56.879Z,92889.19
2022-09-12T14:31:41.313Z,92889.00
2022-09-12T14:34:24.325Z,92887.19
2022-09-12T14:37:08.531Z,92883.91
2022-09-12T14:39:52.984Z,92882.81
2022-09-12T14:42:35.889Z,92878.19
2022-09-12T14:45:25.219Z,92887.44
2022-09-12T14:48:20.222Z,92876.16
2022-09-12T14:51:03.709Z,92875.38
2022-09-12T14:53:49.885Z,92869.13
2022-09-12T14:56:43.574Z,92869.97
2022-09-12T14:59:32.470Z,92874.63
2022-09-12T15:02:27.046Z,92873.69
2022-09-12T15:05:28.363Z,92879.56
2022-09-12T15:08:16.158Z,92871.78
2022-09-12T15:10:59.846Z,92875.03
2022-09-12T15:13:44.127Z,92869.06
2022-09-12T15:16:27.020Z,92870.09
2022-09-12T15:19:10.039Z,92869.72
2022-09-12T15:21:53.643Z,92870.94
2022-09-12T15:24:39.857Z,92869.97
2022-09-12T15:27:24.005Z,92869.44
2022-09-12T15:30:10.272Z,92860.63
2022-09-12T15:32:53.379Z,92868.72
2022-09-12T15:35:36.680Z,92868.75
2022-09-12T15:38:23.129Z,92863.16
2022-09-12T15:41:13.027Z,92861.97
2022-09-12T15:43:56.822Z,92864.50
2022-09-12T15:46:41.316Z,92859.38
2022-09-12T15:49:24.371Z,92855.88
2022-09-12T15:52:07.553Z,92858.94
2022-09-12T15:54:50.464Z,92853.16
2022-09-12T15:57:33.487Z,92849.38
2022-09-12T16:00:18.800Z,92855.44
2022-09-12T16:03:03.452Z,92840.44
2022-09-12T16:05:46.375Z,92849.09
2022-09-12T16:08:31.416Z,92851.88
2022-09-12T16:11:19.950Z,92845.69
2022-09-12T16:14:03.788Z,92842.09
2022-09-12T16:16:53.361Z,92854.53
2022-09-12T16:19:38.058Z,92845.75
2022-09-12T16:22:20.828Z,92849.34
2022-09-12T16:25:04.198Z,92840.75
2022-09-12T16:27:47.317Z,92845.56
2022-09-12T16:30:30.323Z,92838.13
2022-09-12T16:33:13.344Z,92837.13
2022-09-12T16:36:03.857Z,92839.72
2022-09-12T16:38:48.290Z,92841.34
2022-09-12T16:41:31.359Z,92842.13
2022-09-12T16:44:14.405Z,92835.72
2022-09-12T16:46:57.783Z,92839.91
2022-09-12T16:49:40.705Z,92838.69
2022-09-12T16:52:25.076Z,92841.69
2022-09-12T16:55:08.912Z,92838.69
2022-09-12T16:57:51.899Z,92836.63
2022-09-12T17:00:34.855Z,92842.22
2022-09-12T17:03:17.875Z,92836.75
2022-09-12T17:06:01.464Z,92834.13
2022-09-12T17:08:48.841Z,92836.47
2022-09-12T17:11:34.133Z,92830.00
2022-09-12T17:14:17.387Z,92831.38
2022-09-12T17:17:00.391Z,92832.59
2022-09-12T17:19:43.524Z,92829.56
2022-09-12T17:22:26.467Z,92829.75
2022-09-12T17:25:10.904Z,92832.56
2022-09-12T17:27:53.818Z,92831.31
2022-09-12T17:30:37.118Z,92836.28
2022-09-12T17:33:20.369Z,92827.47
2022-09-12T17:36:04.620Z,92834.03
2022-09-12T17:38:48.162Z,92828.41
2022-09-12T17:41:33.307Z,92829.00
2022-09-12T17:44:16.964Z,92827.97
2022-09-12T17:46:59.878Z,92845.13
2022-09-12T17:49:42.780Z,92842.06
2022-09-12T17:52:25.755Z,92835.47
2022-09-12T17:55:09.128Z,92836.66
2022-09-12T17:57:53.603Z,92839.41
2022-09-12T18:00:50.536Z,92846.97
2022-09-12T18:03:35.199Z,92837.34
2022-09-12T18:06:18.328Z,92838.06
2022-09-12T18:09:02.270Z,92836.41
2022-09-12T18:11:45.434Z,92843.97
2022-09-12T18:14:29.839Z,92846.13
2022-09-12T18:17:12.827Z,92844.09
2022-09-12T18:19:55.957Z,92843.47
2022-09-12T18:22:38.953Z,92845.44
2022-09-12T18:25:21.998Z,92855.81
2022-09-12T18:28:09.258Z,92856.75
2022-09-12T18:30:54.255Z,92853.31
2022-09-12T18:33:37.981Z,92858.13
2022-09-12T18:36:21.048Z,92855.34
2022-09-12T18:39:04.016Z,92863.31
2022-09-12T18:41:46.930Z,92860.09
2022-09-12T18:44:30.052Z,92855.66
2022-09-12T18:47:14.320Z,92847.63
2022-09-12T18:49:57.240Z,92850.50
2022-09-12T18:52:40.162Z,92846.50
2022-09-12T18:55:23.804Z,92844.81
2022-09-12T18:58:06.939Z,92844.03
2022-09-12T19:00:49.895Z,92837.97
2022-09-12T19:03:34.170Z,92840.38
2022-09-12T19:06:18.880Z,92839.50
2022-09-12T19:09:07.239Z,92841.47
2022-09-12T19:11:52.581Z,92840.50
2022-09-12T19:14:35.516Z,92846.78
2022-09-12T19:17:19.518Z,92839.78
2022-09-12T19:20:04.165Z,92840.47
2022-09-12T19:22:47.204Z,92835.50
2022-09-12T19:25:30.291Z,92837.75
2022-09-12T19:28:13.353Z,92840.16
2022-09-12T19:30:56.360Z,92832.81
2022-09-12T19:33:40.072Z,92834.06
2022-09-12T19:39:27.475Z,92836.03
2022-09-12T19:42:10.421Z,92840.88
2022-09-12T19:44:55.786Z,92842.84
2022-09-12T19:47:38.708Z,92844.06
2022-09-12T19:50:21.692Z,92839.41
2022-09-12T19:53:06.466Z,92832.19
2022-09-12T19:55:49.210Z,92838.56
2022-09-12T19:58:33.632Z,92829.69
2022-09-12T20:01:18.513Z,92830.06
2022-09-12T20:04:01.499Z,92828.00
2022-09-12T20:06:44.448Z,92837.31
2022-09-12T20:09:28.800Z,92838.47
2022-09-12T20:12:11.993Z,92830.44
2022-09-12T20:14:54.968Z,92825.00
2022-09-12T20:17:37.920Z,92824.03
2022-09-12T20:20:20.971Z,92819.56
2022-09-12T20:23:04.012Z,92827.31
2022-09-12T20:25:48.948Z,92835.09
2022-09-12T20:28:32.610Z,92834.28
2022-09-12T20:31:17.093Z,92830.69
2022-09-12T20:34:00.538Z,92825.53
2022-09-12T20:36:43.640Z,92820.72
2022-09-12T20:39:27.086Z,92818.13
2022-09-12T20:42:11.391Z,92816.06
2022-09-12T20:44:54.399Z,92808.69
2022-09-12T20:47:37.314Z,92812.59
2022-09-12T20:50:20.270Z,92809.19
2022-09-12T20:53:03.224Z,92811.16
2022-09-12T20:55:53.066Z,92805.38
2022-09-12T20:58:40.497Z,92807.97
2022-09-12T21:01:27.908Z,92805.88
2022-09-12T21:04:14.785Z,92808.22
2022-09-12T21:06:58.174Z,92805.16
2022-09-12T21:09:41.199Z,92803.31
2022-09-12T21:12:24.142Z,92807.03
2022-09-12T21:15:10.254Z,92805.63
2022-09-12T21:17:53.644Z,92808.19
2022-09-12T21:20:36.656Z,92802.22
2022-09-12T21:23:19.898Z,92802.03
2022-09-12T21:26:03.956Z,92799.66
2022-09-12T21:28:46.875Z,92792.31
2022-09-12T21:31:31.348Z,92792.47
2022-09-12T21:34:14.303Z,92797.84
2022-09-12T21:36:57.275Z,92798.03
2022-09-12T21:39:40.276Z,92796.59
2022-09-12T21:42:23.288Z,92796.94
2022-09-12T21:45:07.411Z,92792.41
2022-09-12T21:47:51.788Z,92793.38
2022-09-12T21:50:34.781Z,92788.66
2022-09-12T21:53:17.807Z,92791.41
2022-09-12T21:56:05.846Z,92792.22
2022-09-12T21:58:48.789Z,92796.94
2022-09-12T22:01:31.774Z,92793.56
2022-09-12T22:04:16.386Z,92792.50
2022-09-12T22:06:59.316Z,92795.88
2022-09-12T22:09:42.259Z,92789.09
2022-09-12T22:12:27.455Z,92794.88
2022-09-12T22:15:36.389Z,92794.97
2022-09-12T22:18:14.240Z,92803.38
2022-09-12T22:21:03.727Z,92800.84
2022-09-12T22:24:04.695Z,92790.38
2022-09-12T22:26:47.758Z,92793.94
2022-09-12T22:29:30.722Z,92784.47
2022-09-12T22:32:13.665Z,92788.66
2022-09-12T22:34:57.937Z,92789.34
2022-09-12T22:37:42.422Z,92785.22
2022-09-12T22:40:25.419Z,92784.06
2022-09-12T22:43:08.895Z,92774.88
2022-09-12T22:45:52.297Z,92774.06
2022-09-12T22:48:35.540Z,92785.56
2022-09-12T22:51:18.878Z,92783.28
2022-09-12T22:54:03.391Z,92784.34
2022-09-12T22:56:46.239Z,92776.69
2022-09-12T22:59:29.196Z,92772.97
2022-09-12T23:02:12.102Z,92777.16
2022-09-12T23:04:55.095Z,92774.94
2022-09-12T23:07:38.073Z,92777.69
2022-09-12T23:10:22.946Z,92778.50
2022-09-12T23:13:06.331Z,92772.22
2022-09-12T23:15:49.809Z,92775.81
2022-09-12T23:18:35.439Z,92767.44
2022-09-12T23:21:20.328Z,92766.94
2022-09-12T23:24:03.729Z,92768.22
2022-09-12T23:26:48.152Z,92762.69
2022-09-12T23:29:34.374Z,92764.31
2022-09-12T23:32:17.656Z,92758.06
2022-09-12T23:35:00.518Z,92759.13
2022-09-12T23:37:43.622Z,92754.13
2022-09-12T23:40:26.564Z,92753.78
2022-09-12T23:43:10.823Z,92752.69
2022-09-12T23:45:54.223Z,92750.66
2022-09-12T23:48:37.370Z,92757.25
2022-09-12T23:51:21.721Z,92756.25
2022-09-12T23:54:04.773Z,92747.78
2022-09-12T23:56:47.924Z,92743.31
2022-09-12T23:59:32.288Z,92738.94
